Impacts TAF Board
For situational awareness. Not to be used for flight planning purposes.
IDs:

KDEN - Denver Intl, CO, US

Issued at 2340 UTC 04 Jul 2022
Updated at 2354 UTC 04 Jul 2022
Potential Impact None Slight Moderate High
Time<<05/12Z 05/13Z 05/14Z 05/15Z 05/16Z 05/17Z 05/18Z 05/19Z 05/20Z 05/21Z 05/22Z 05/23Z 06/00Z>>
Type PRVL PRVL PRVL PRVL PRVL PRVL PRVL PRVL PRVL PRVL PRVL PRVL PRVL
VIS >6 >6 >6 >6 >6 >6 >6 >6 >6 >6 >6 >6 >6
CIG -- -- 220 220 220 220 220 220 220 220 220 220 220
Cover SCT SCT BKN BKN BKN BKN BKN BKN BKN BKN BKN BKN BKN
FltCat VFR VFR VFR VFR VFR VFR VFR VFR VFR VFR VFR VFR VFR
WX -- -- -- -- -- -- -- -- -- -- VCTS VCTS VCTS
WDir 220 220 VRB VRB VRB 20 20 20 20 20 110 110 110
WSpd 10 10 6 6 6 7 7 7 7 7 7 7 7
WGst -- -- -- -- -- -- -- -- -- -- -- -- --
WSHgt -- -- -- -- -- -- -- -- -- -- -- -- --
WSDir -- -- -- -- -- -- -- -- -- -- -- -- --
WSSpd -- -- -- -- -- -- -- -- -- -- -- -- --
Raw TAF
KDEN 042340Z 0500/0606 31012KT P6SM VCSH SCT090 BKN150
  FM050100 02012KT P6SM VCSH SCT100 BKN150
  FM050300 14010KT P6SM FEW100 BKN220
  FM050500 22010KT P6SM FEW110 SCT220
  FM051400 VRB06KT P6SM FEW100 BKN220
  FM051700 02007KT P6SM FEW100 BKN220
  FM052200 11007KT P6SM VCTS SCT100CB BKN220
  FM060300 16009KT P6SM FEW120 BKN200


METAR Board
Radar Display
Forecast Discussion
For situational awareness. Not to be used for flight planning purposes.